sensor_id;sensor_type;location;lat;lon;timestamp;P1;durP1;ratioP1;P2;durP2;ratioP2
43509;SDS011;29105;57.764;40.952;2023-07-29T00:00:41;7.40;;;5.20;;
43509;SDS011;29105;57.764;40.952;2023-07-29T00:03:08;9.93;;;5.22;;
43509;SDS011;29105;57.764;40.952;2023-07-29T00:05:34;7.80;;;4.60;;
43509;SDS011;29105;57.764;40.952;2023-07-29T00:07:59;6.72;;;4.70;;
43509;SDS011;29105;57.764;40.952;2023-07-29T00:10:25;8.55;;;5.00;;
43509;SDS011;29105;57.764;40.952;2023-07-29T00:12:52;8.07;;;4.95;;
43509;SDS011;29105;57.764;40.952;2023-07-29T00:15:18;5.97;;;5.03;;
43509;SDS011;29105;57.764;40.952;2023-07-29T00:17:45;4.90;;;4.30;;
43509;SDS011;29105;57.764;40.952;2023-07-29T00:20:11;6.72;;;3.75;;
43509;SDS011;29105;57.764;40.952;2023-07-29T00:22:37;7.07;;;4.75;;
43509;SDS011;29105;57.764;40.952;2023-07-29T00:25:03;8.75;;;4.32;;
43509;SDS011;29105;57.764;40.952;2023-07-29T00:27:37;5.00;;;3.90;;
43509;SDS011;29105;57.764;40.952;2023-07-29T00:30:03;5.07;;;3.40;;
43509;SDS011;29105;57.764;40.952;2023-07-29T00:32:31;8.40;;;3.65;;
43509;SDS011;29105;57.764;40.952;2023-07-29T00:34:57;4.30;;;3.10;;
43509;SDS011;29105;57.764;40.952;2023-07-29T00:37:26;3.95;;;3.03;;
43509;SDS011;29105;57.764;40.952;2023-07-29T00:39:52;6.95;;;2.70;;
43509;SDS011;29105;57.764;40.952;2023-07-29T00:42:25;4.90;;;2.40;;
43509;SDS011;29105;57.764;40.952;2023-07-29T00:44:51;3.28;;;2.25;;
43509;SDS011;29105;57.764;40.952;2023-07-29T00:47:17;6.07;;;2.20;;
43509;SDS011;29105;57.764;40.952;2023-07-29T00:49:46;4.20;;;2.33;;
43509;SDS011;29105;57.764;40.952;2023-07-29T00:52:12;3.42;;;2.03;;
43509;SDS011;29105;57.764;40.952;2023-07-29T00:54:38;2.95;;;1.60;;
43509;SDS011;29105;57.764;40.952;2023-07-29T00:57:05;3.92;;;1.90;;
43509;SDS011;29105;57.764;40.952;2023-07-29T00:59:32;2.22;;;1.50;;
43509;SDS011;29105;57.764;40.952;2023-07-29T01:01:59;4.00;;;1.70;;
43509;SDS011;29105;57.764;40.952;2023-07-29T01:04:24;8.55;;;1.65;;
43509;SDS011;29105;57.764;40.952;2023-07-29T01:17:40;1.70;;;1.33;;
43509;SDS011;29105;57.764;40.952;2023-07-29T01:20:09;4.22;;;1.40;;
43509;SDS011;29105;57.764;40.952;2023-07-29T01:22:37;7.88;;;1.08;;
43509;SDS011;29105;57.764;40.952;2023-07-29T01:25:05;3.05;;;1.08;;
43509;SDS011;29105;57.764;40.952;2023-07-29T01:27:31;3.10;;;1.33;;
43509;SDS011;29105;57.764;40.952;2023-07-29T01:29:57;4.40;;;1.10;;
43509;SDS011;29105;57.764;40.952;2023-07-29T01:32:26;2.78;;;0.93;;
43509;SDS011;29105;57.764;40.952;2023-07-29T01:37:37;4.15;;;1.05;;
43509;SDS011;29105;57.764;40.952;2023-07-29T01:40:04;1.33;;;1.00;;
43509;SDS011;29105;57.764;40.952;2023-07-29T01:42:31;5.20;;;0.85;;
43509;SDS011;29105;57.764;40.952;2023-07-29T01:44:56;1.50;;;0.70;;
43509;SDS011;29105;57.764;40.952;2023-07-29T01:47:22;3.08;;;0.85;;
43509;SDS011;29105;57.764;40.952;2023-07-29T01:49:48;4.50;;;1.00;;
43509;SDS011;29105;57.764;40.952;2023-07-29T01:52:14;3.45;;;0.82;;
43509;SDS011;29105;57.764;40.952;2023-07-29T01:54:39;1.70;;;0.77;;
43509;SDS011;29105;57.764;40.952;2023-07-29T01:57:05;2.13;;;0.82;;
43509;SDS011;29105;57.764;40.952;2023-07-29T01:59:31;2.78;;;0.80;;
43509;SDS011;29105;57.764;40.952;2023-07-29T02:01:56;1.38;;;0.80;;
43509;SDS011;29105;57.764;40.952;2023-07-29T02:04:22;1.33;;;0.88;;
43509;SDS011;29105;57.764;40.952;2023-07-29T02:06:48;2.83;;;0.65;;
43509;SDS011;29105;57.764;40.952;2023-07-29T02:09:13;3.85;;;1.00;;
43509;SDS011;29105;57.764;40.952;2023-07-29T02:11:39;3.33;;;0.63;;
43509;SDS011;29105;57.764;40.952;2023-07-29T02:14:05;4.97;;;0.80;;
43509;SDS011;29105;57.764;40.952;2023-07-29T02:16:30;1.77;;;0.65;;
43509;SDS011;29105;57.764;40.952;2023-07-29T02:18:58;3.05;;;0.73;;
43509;SDS011;29105;57.764;40.952;2023-07-29T02:21:23;1.88;;;0.55;;
43509;SDS011;29105;57.764;40.952;2023-07-29T02:23:49;0.93;;;0.70;;
43509;SDS011;29105;57.764;40.952;2023-07-29T02:26:16;2.72;;;0.40;;
43509;SDS011;29105;57.764;40.952;2023-07-29T02:28:42;2.63;;;0.60;;
43509;SDS011;29105;57.764;40.952;2023-07-29T02:31:08;1.10;;;0.50;;
43509;SDS011;29105;57.764;40.952;2023-07-29T02:33:46;2.42;;;0.70;;
43509;SDS011;29105;57.764;40.952;2023-07-29T02:36:12;2.80;;;0.70;;
43509;SDS011;29105;57.764;40.952;2023-07-29T02:38:38;2.55;;;0.55;;
43509;SDS011;29105;57.764;40.952;2023-07-29T02:41:05;1.08;;;0.40;;
43509;SDS011;29105;57.764;40.952;2023-07-29T02:43:30;3.30;;;0.50;;
43509;SDS011;29105;57.764;40.952;2023-07-29T02:45:56;1.30;;;0.70;;
43509;SDS011;29105;57.764;40.952;2023-07-29T02:48:22;2.00;;;0.50;;
43509;SDS011;29105;57.764;40.952;2023-07-29T02:50:47;2.08;;;0.68;;
43509;SDS011;29105;57.764;40.952;2023-07-29T02:53:13;3.60;;;0.47;;
43509;SDS011;29105;57.764;40.952;2023-07-29T02:55:41;1.67;;;0.40;;
43509;SDS011;29105;57.764;40.952;2023-07-29T02:58:07;3.92;;;0.30;;
43509;SDS011;29105;57.764;40.952;2023-07-29T03:00:33;2.35;;;0.40;;
43509;SDS011;29105;57.764;40.952;2023-07-29T03:02:59;2.00;;;0.77;;
43509;SDS011;29105;57.764;40.952;2023-07-29T03:05:27;3.33;;;0.70;;
43509;SDS011;29105;57.764;40.952;2023-07-29T03:07:53;2.35;;;0.50;;
43509;SDS011;29105;57.764;40.952;2023-07-29T03:10:19;3.33;;;0.32;;
43509;SDS011;29105;57.764;40.952;2023-07-29T03:12:45;4.43;;;0.75;;
43509;SDS011;29105;57.764;40.952;2023-07-29T03:15:11;3.45;;;0.30;;
43509;SDS011;29105;57.764;40.952;2023-07-29T03:17:37;1.20;;;0.68;;
43509;SDS011;29105;57.764;40.952;2023-07-29T03:20:04;6.15;;;1.23;;
43509;SDS011;29105;57.764;40.952;2023-07-29T03:22:30;1.73;;;0.57;;
43509;SDS011;29105;57.764;40.952;2023-07-29T03:24:55;3.67;;;0.77;;
43509;SDS011;29105;57.764;40.952;2023-07-29T03:27:21;1.85;;;0.88;;
43509;SDS011;29105;57.764;40.952;2023-07-29T03:29:47;9.25;;;1.13;;
43509;SDS011;29105;57.764;40.952;2023-07-29T03:32:12;1.98;;;0.98;;
43509;SDS011;29105;57.764;40.952;2023-07-29T03:34:38;1.52;;;0.52;;
43509;SDS011;29105;57.764;40.952;2023-07-29T03:37:05;3.08;;;0.52;;
43509;SDS011;29105;57.764;40.952;2023-07-29T03:39:31;3.72;;;0.90;;
43509;SDS011;29105;57.764;40.952;2023-07-29T03:41:57;2.28;;;0.63;;
43509;SDS011;29105;57.764;40.952;2023-07-29T03:44:23;4.40;;;0.60;;
43509;SDS011;29105;57.764;40.952;2023-07-29T03:46:49;3.05;;;0.98;;
43509;SDS011;29105;57.764;40.952;2023-07-29T03:49:14;1.58;;;0.70;;
43509;SDS011;29105;57.764;40.952;2023-07-29T03:51:40;3.85;;;0.80;;
43509;SDS011;29105;57.764;40.952;2023-07-29T03:54:06;2.90;;;0.82;;
43509;SDS011;29105;57.764;40.952;2023-07-29T03:56:32;4.15;;;1.08;;
43509;SDS011;29105;57.764;40.952;2023-07-29T03:59:04;4.43;;;1.15;;
43509;SDS011;29105;57.764;40.952;2023-07-29T04:01:30;2.20;;;0.65;;
43509;SDS011;29105;57.764;40.952;2023-07-29T04:03:57;5.18;;;0.63;;
43509;SDS011;29105;57.764;40.952;2023-07-29T04:06:23;2.38;;;0.85;;
43509;SDS011;29105;57.764;40.952;2023-07-29T04:08:49;2.53;;;0.77;;
43509;SDS011;29105;57.764;40.952;2023-07-29T04:11:14;1.65;;;0.75;;
43509;SDS011;29105;57.764;40.952;2023-07-29T04:13:40;3.08;;;0.60;;
43509;SDS011;29105;57.764;40.952;2023-07-29T04:16:06;6.93;;;4.25;;
43509;SDS011;29105;57.764;40.952;2023-07-29T04:18:32;5.88;;;1.25;;
43509;SDS011;29105;57.764;40.952;2023-07-29T04:20:58;4.13;;;1.40;;
43509;SDS011;29105;57.764;40.952;2023-07-29T04:23:23;2.85;;;0.90;;
43509;SDS011;29105;57.764;40.952;2023-07-29T04:25:49;5.88;;;1.40;;
43509;SDS011;29105;57.764;40.952;2023-07-29T04:28:15;1.95;;;0.85;;
43509;SDS011;29105;57.764;40.952;2023-07-29T04:30:41;4.53;;;0.85;;
43509;SDS011;29105;57.764;40.952;2023-07-29T04:33:07;3.40;;;1.00;;
43509;SDS011;29105;57.764;40.952;2023-07-29T04:35:32;3.90;;;1.23;;
43509;SDS011;29105;57.764;40.952;2023-07-29T04:37:58;2.08;;;0.90;;
43509;SDS011;29105;57.764;40.952;2023-07-29T04:40:24;3.05;;;1.13;;
43509;SDS011;29105;57.764;40.952;2023-07-29T04:42:50;4.32;;;1.33;;
43509;SDS011;29105;57.764;40.952;2023-07-29T04:45:16;6.72;;;1.55;;
43509;SDS011;29105;57.764;40.952;2023-07-29T04:47:42;8.02;;;1.90;;
43509;SDS011;29105;57.764;40.952;2023-07-29T04:50:08;3.30;;;2.10;;
43509;SDS011;29105;57.764;40.952;2023-07-29T04:52:34;3.33;;;1.83;;
43509;SDS011;29105;57.764;40.952;2023-07-29T04:55:00;2.22;;;1.38;;
43509;SDS011;29105;57.764;40.952;2023-07-29T04:57:25;3.65;;;1.88;;
43509;SDS011;29105;57.764;40.952;2023-07-29T04:59:51;9.85;;;2.38;;
43509;SDS011;29105;57.764;40.952;2023-07-29T05:02:17;3.90;;;1.92;;
43509;SDS011;29105;57.764;40.952;2023-07-29T05:04:42;8.60;;;3.42;;
43509;SDS011;29105;57.764;40.952;2023-07-29T05:07:08;9.70;;;4.45;;
43509;SDS011;29105;57.764;40.952;2023-07-29T05:09:34;9.10;;;3.38;;
43509;SDS011;29105;57.764;40.952;2023-07-29T05:12:00;6.18;;;3.35;;
43509;SDS011;29105;57.764;40.952;2023-07-29T05:14:25;6.43;;;3.25;;
43509;SDS011;29105;57.764;40.952;2023-07-29T05:16:51;5.90;;;2.97;;
43509;SDS011;29105;57.764;40.952;2023-07-29T05:19:17;4.45;;;2.88;;
43509;SDS011;29105;57.764;40.952;2023-07-29T05:21:43;7.80;;;3.05;;
43509;SDS011;29105;57.764;40.952;2023-07-29T05:24:08;6.93;;;3.05;;
43509;SDS011;29105;57.764;40.952;2023-07-29T05:26:34;6.97;;;3.97;;
43509;SDS011;29105;57.764;40.952;2023-07-29T05:29:00;7.32;;;4.35;;
43509;SDS011;29105;57.764;40.952;2023-07-29T05:31:25;10.05;;;6.07;;
43509;SDS011;29105;57.764;40.952;2023-07-29T05:33:51;12.60;;;6.20;;
43509;SDS011;29105;57.764;40.952;2023-07-29T05:36:17;9.32;;;6.68;;
43509;SDS011;29105;57.764;40.952;2023-07-29T05:38:42;13.35;;;7.40;;
43509;SDS011;29105;57.764;40.952;2023-07-29T05:41:08;12.77;;;7.88;;
43509;SDS011;29105;57.764;40.952;2023-07-29T05:43:34;11.93;;;7.53;;
43509;SDS011;29105;57.764;40.952;2023-07-29T05:46:00;15.88;;;8.70;;
43509;SDS011;29105;57.764;40.952;2023-07-29T05:48:25;25.55;;;9.35;;
43509;SDS011;29105;57.764;40.952;2023-07-29T05:50:51;17.85;;;10.30;;
43509;SDS011;29105;57.764;40.952;2023-07-29T05:53:17;22.20;;;10.18;;
43509;SDS011;29105;57.764;40.952;2023-07-29T05:55:45;12.45;;;8.80;;
43509;SDS011;29105;57.764;40.952;2023-07-29T05:58:10;15.40;;;9.13;;
43509;SDS011;29105;57.764;40.952;2023-07-29T06:00:36;15.55;;;10.32;;
43509;SDS011;29105;57.764;40.952;2023-07-29T06:03:03;14.23;;;9.38;;
43509;SDS011;29105;57.764;40.952;2023-07-29T06:05:29;17.17;;;9.95;;
43509;SDS011;29105;57.764;40.952;2023-07-29T06:07:54;15.52;;;9.85;;
43509;SDS011;29105;57.764;40.952;2023-07-29T06:10:20;15.90;;;9.70;;
43509;SDS011;29105;57.764;40.952;2023-07-29T06:12:47;17.02;;;9.70;;
43509;SDS011;29105;57.764;40.952;2023-07-29T06:15:13;13.20;;;8.65;;
43509;SDS011;29105;57.764;40.952;2023-07-29T06:17:39;14.15;;;10.55;;
43509;SDS011;29105;57.764;40.952;2023-07-29T06:20:06;16.38;;;9.93;;
43509;SDS011;29105;57.764;40.952;2023-07-29T06:22:32;12.18;;;9.23;;
43509;SDS011;29105;57.764;40.952;2023-07-29T06:24:57;12.05;;;9.20;;
43509;SDS011;29105;57.764;40.952;2023-07-29T06:27:24;12.20;;;7.93;;
43509;SDS011;29105;57.764;40.952;2023-07-29T06:29:58;11.63;;;8.15;;
43509;SDS011;29105;57.764;40.952;2023-07-29T06:32:23;16.88;;;9.57;;
43509;SDS011;29105;57.764;40.952;2023-07-29T06:34:49;12.85;;;8.77;;
43509;SDS011;29105;57.764;40.952;2023-07-29T06:37:17;13.98;;;8.25;;
43509;SDS011;29105;57.764;40.952;2023-07-29T06:39:42;15.85;;;8.52;;
43509;SDS011;29105;57.764;40.952;2023-07-29T06:42:08;12.23;;;8.23;;
43509;SDS011;29105;57.764;40.952;2023-07-29T06:44:34;11.23;;;7.25;;
43509;SDS011;29105;57.764;40.952;2023-07-29T06:46:59;17.92;;;15.18;;
43509;SDS011;29105;57.764;40.952;2023-07-29T06:49:25;11.82;;;8.20;;
43509;SDS011;29105;57.764;40.952;2023-07-29T06:51:51;10.40;;;7.10;;
43509;SDS011;29105;57.764;40.952;2023-07-29T06:54:16;12.23;;;7.28;;
43509;SDS011;29105;57.764;40.952;2023-07-29T06:56:42;12.30;;;7.30;;
43509;SDS011;29105;57.764;40.952;2023-07-29T06:59:08;12.63;;;7.78;;
43509;SDS011;29105;57.764;40.952;2023-07-29T07:01:34;11.10;;;7.93;;
43509;SDS011;29105;57.764;40.952;2023-07-29T07:04:00;9.65;;;6.97;;
43509;SDS011;29105;57.764;40.952;2023-07-29T07:06:25;9.90;;;6.78;;
43509;SDS011;29105;57.764;40.952;2023-07-29T07:08:51;9.50;;;6.88;;
43509;SDS011;29105;57.764;40.952;2023-07-29T07:11:18;9.82;;;6.53;;
43509;SDS011;29105;57.764;40.952;2023-07-29T07:13:43;10.38;;;6.32;;
43509;SDS011;29105;57.764;40.952;2023-07-29T07:16:09;12.30;;;6.63;;
43509;SDS011;29105;57.764;40.952;2023-07-29T07:18:35;10.07;;;6.90;;
43509;SDS011;29105;57.764;40.952;2023-07-29T07:21:00;10.00;;;6.85;;
43509;SDS011;29105;57.764;40.952;2023-07-29T07:23:26;10.52;;;7.00;;
43509;SDS011;29105;57.764;40.952;2023-07-29T07:25:52;13.25;;;7.35;;
43509;SDS011;29105;57.764;40.952;2023-07-29T07:28:17;9.48;;;6.40;;
43509;SDS011;29105;57.764;40.952;2023-07-29T07:30:43;11.40;;;7.18;;
43509;SDS011;29105;57.764;40.952;2023-07-29T07:33:09;10.45;;;6.68;;
43509;SDS011;29105;57.764;40.952;2023-07-29T07:35:34;9.77;;;6.90;;
43509;SDS011;29105;57.764;40.952;2023-07-29T07:38:00;8.10;;;6.45;;
43509;SDS011;29105;57.764;40.952;2023-07-29T07:40:30;9.30;;;6.75;;
43509;SDS011;29105;57.764;40.952;2023-07-29T07:42:56;9.93;;;6.18;;
43509;SDS011;29105;57.764;40.952;2023-07-29T07:45:22;9.73;;;6.82;;
43509;SDS011;29105;57.764;40.952;2023-07-29T07:47:48;11.52;;;6.75;;
43509;SDS011;29105;57.764;40.952;2023-07-29T07:50:13;13.05;;;7.45;;
43509;SDS011;29105;57.764;40.952;2023-07-29T07:52:39;10.35;;;6.10;;
43509;SDS011;29105;57.764;40.952;2023-07-29T07:55:05;14.88;;;7.00;;
43509;SDS011;29105;57.764;40.952;2023-07-29T07:57:31;11.68;;;6.70;;
43509;SDS011;29105;57.764;40.952;2023-07-29T07:59:57;10.85;;;7.07;;
43509;SDS011;29105;57.764;40.952;2023-07-29T08:02:22;10.32;;;6.75;;
43509;SDS011;29105;57.764;40.952;2023-07-29T08:04:48;10.80;;;7.15;;
43509;SDS011;29105;57.764;40.952;2023-07-29T08:07:13;11.00;;;6.22;;
43509;SDS011;29105;57.764;40.952;2023-07-29T08:09:39;8.23;;;6.38;;
43509;SDS011;29105;57.764;40.952;2023-07-29T08:12:05;9.05;;;6.82;;
43509;SDS011;29105;57.764;40.952;2023-07-29T08:14:31;14.25;;;6.13;;
43509;SDS011;29105;57.764;40.952;2023-07-29T08:16:57;13.82;;;6.32;;
43509;SDS011;29105;57.764;40.952;2023-07-29T08:19:22;10.88;;;6.43;;
43509;SDS011;29105;57.764;40.952;2023-07-29T08:21:48;9.60;;;6.32;;
43509;SDS011;29105;57.764;40.952;2023-07-29T08:24:14;12.20;;;7.43;;
43509;SDS011;29105;57.764;40.952;2023-07-29T08:26:39;9.50;;;6.07;;
43509;SDS011;29105;57.764;40.952;2023-07-29T08:29:05;13.48;;;6.43;;
43509;SDS011;29105;57.764;40.952;2023-07-29T08:31:31;15.93;;;6.18;;
43509;SDS011;29105;57.764;40.952;2023-07-29T08:33:59;8.55;;;6.70;;
43509;SDS011;29105;57.764;40.952;2023-07-29T08:36:25;17.75;;;6.60;;
43509;SDS011;29105;57.764;40.952;2023-07-29T08:38:50;10.63;;;6.32;;
43509;SDS011;29105;57.764;40.952;2023-07-29T08:41:25;11.57;;;6.80;;
43509;SDS011;29105;57.764;40.952;2023-07-29T08:43:56;14.30;;;6.07;;
43509;SDS011;29105;57.764;40.952;2023-07-29T08:46:43;14.45;;;6.28;;
43509;SDS011;29105;57.764;40.952;2023-07-29T08:49:11;21.73;;;14.27;;
43509;SDS011;29105;57.764;40.952;2023-07-29T08:51:38;10.30;;;6.95;;
43509;SDS011;29105;57.764;40.952;2023-07-29T08:54:07;17.52;;;6.88;;
43509;SDS011;29105;57.764;40.952;2023-07-29T08:56:33;10.00;;;6.20;;
43509;SDS011;29105;57.764;40.952;2023-07-29T08:58:59;11.98;;;6.38;;
43509;SDS011;29105;57.764;40.952;2023-07-29T09:01:27;14.18;;;7.07;;
43509;SDS011;29105;57.764;40.952;2023-07-29T09:03:56;13.18;;;7.15;;
43509;SDS011;29105;57.764;40.952;2023-07-29T09:06:21;16.55;;;8.93;;
43509;SDS011;29105;57.764;40.952;2023-07-29T09:08:50;16.23;;;7.50;;
43509;SDS011;29105;57.764;40.952;2023-07-29T09:11:16;13.77;;;7.72;;
43509;SDS011;29105;57.764;40.952;2023-07-29T09:13:42;10.20;;;7.40;;
43509;SDS011;29105;57.764;40.952;2023-07-29T09:16:09;10.05;;;6.93;;
43509;SDS011;29105;57.764;40.952;2023-07-29T09:18:35;15.00;;;7.22;;
43509;SDS011;29105;57.764;40.952;2023-07-29T09:21:03;13.32;;;7.60;;
43509;SDS011;29105;57.764;40.952;2023-07-29T09:23:38;13.15;;;7.28;;
43509;SDS011;29105;57.764;40.952;2023-07-29T09:26:05;11.57;;;6.25;;
43509;SDS011;29105;57.764;40.952;2023-07-29T09:28:34;11.30;;;6.10;;
43509;SDS011;29105;57.764;40.952;2023-07-29T09:31:01;9.95;;;5.93;;
43509;SDS011;29105;57.764;40.952;2023-07-29T09:33:36;11.52;;;5.75;;
43509;SDS011;29105;57.764;40.952;2023-07-29T09:36:07;11.95;;;5.50;;
43509;SDS011;29105;57.764;40.952;2023-07-29T09:38:35;10.18;;;5.82;;
43509;SDS011;29105;57.764;40.952;2023-07-29T09:41:01;11.98;;;5.55;;
43509;SDS011;29105;57.764;40.952;2023-07-29T09:43:34;8.02;;;4.82;;
43509;SDS011;29105;57.764;40.952;2023-07-29T09:46:03;8.80;;;5.70;;
43509;SDS011;29105;57.764;40.952;2023-07-29T09:48:32;12.63;;;6.32;;
43509;SDS011;29105;57.764;40.952;2023-07-29T09:50:58;8.32;;;5.20;;
43509;SDS011;29105;57.764;40.952;2023-07-29T09:53:24;6.88;;;3.15;;
43509;SDS011;29105;57.764;40.952;2023-07-29T09:55:52;10.70;;;5.10;;
43509;SDS011;29105;57.764;40.952;2023-07-29T09:58:27;7.05;;;4.75;;
43509;SDS011;29105;57.764;40.952;2023-07-29T10:00:53;7.68;;;4.72;;
43509;SDS011;29105;57.764;40.952;2023-07-29T10:03:20;5.88;;;5.03;;
43509;SDS011;29105;57.764;40.952;2023-07-29T10:05:46;7.85;;;4.95;;
43509;SDS011;29105;57.764;40.952;2023-07-29T10:08:12;6.90;;;4.35;;
43509;SDS011;29105;57.764;40.952;2023-07-29T10:10:41;8.73;;;5.55;;
43509;SDS011;29105;57.764;40.952;2023-07-29T10:13:07;7.75;;;4.05;;
43509;SDS011;29105;57.764;40.952;2023-07-29T10:15:34;7.80;;;4.22;;
43509;SDS011;29105;57.764;40.952;2023-07-29T10:18:01;10.48;;;4.30;;
43509;SDS011;29105;57.764;40.952;2023-07-29T10:20:28;9.10;;;4.40;;
43509;SDS011;29105;57.764;40.952;2023-07-29T10:22:55;11.55;;;3.90;;
43509;SDS011;29105;57.764;40.952;2023-07-29T10:25:22;7.70;;;3.67;;
43509;SDS011;29105;57.764;40.952;2023-07-29T10:27:49;4.97;;;3.10;;
43509;SDS011;29105;57.764;40.952;2023-07-29T10:30:19;5.70;;;3.42;;
43509;SDS011;29105;57.764;40.952;2023-07-29T10:32:45;5.50;;;3.33;;
43509;SDS011;29105;57.764;40.952;2023-07-29T10:35:16;5.20;;;3.35;;
43509;SDS011;29105;57.764;40.952;2023-07-29T10:37:42;6.45;;;3.67;;
43509;SDS011;29105;57.764;40.952;2023-07-29T10:40:08;7.95;;;3.08;;
43509;SDS011;29105;57.764;40.952;2023-07-29T10:42:35;9.63;;;3.00;;
43509;SDS011;29105;57.764;40.952;2023-07-29T10:45:35;4.60;;;2.92;;
43509;SDS011;29105;57.764;40.952;2023-07-29T10:48:04;9.10;;;2.65;;
43509;SDS011;29105;57.764;40.952;2023-07-29T10:50:37;7.43;;;2.92;;
43509;SDS011;29105;57.764;40.952;2023-07-29T10:53:02;4.25;;;2.80;;
43509;SDS011;29105;57.764;40.952;2023-07-29T10:55:32;8.88;;;2.60;;
43509;SDS011;29105;57.764;40.952;2023-07-29T10:58:14;8.30;;;2.90;;
43509;SDS011;29105;57.764;40.952;2023-07-29T11:00:44;10.85;;;2.25;;
43509;SDS011;29105;57.764;40.952;2023-07-29T11:03:11;3.95;;;2.35;;
43509;SDS011;29105;57.764;40.952;2023-07-29T11:05:46;6.22;;;2.78;;
43509;SDS011;29105;57.764;40.952;2023-07-29T11:08:17;5.53;;;3.00;;
43509;SDS011;29105;57.764;40.952;2023-07-29T11:10:44;5.32;;;2.90;;
43509;SDS011;29105;57.764;40.952;2023-07-29T11:13:32;7.50;;;3.45;;
43509;SDS011;29105;57.764;40.952;2023-07-29T11:15:59;10.57;;;4.72;;
43509;SDS011;29105;57.764;40.952;2023-07-29T11:18:30;10.25;;;3.15;;
43509;SDS011;29105;57.764;40.952;2023-07-29T11:20:58;7.68;;;3.10;;
43509;SDS011;29105;57.764;40.952;2023-07-29T11:23:33;5.40;;;3.03;;
43509;SDS011;29105;57.764;40.952;2023-07-29T11:26:01;6.25;;;2.78;;
43509;SDS011;29105;57.764;40.952;2023-07-29T11:28:27;9.75;;;3.65;;
43509;SDS011;29105;57.764;40.952;2023-07-29T11:30:54;7.32;;;3.17;;
43509;SDS011;29105;57.764;40.952;2023-07-29T11:33:23;5.25;;;2.58;;
43509;SDS011;29105;57.764;40.952;2023-07-29T11:35:50;5.13;;;3.38;;
43509;SDS011;29105;57.764;40.952;2023-07-29T11:38:16;8.60;;;3.45;;
43509;SDS011;29105;57.764;40.952;2023-07-29T11:40:43;2.67;;;1.35;;
43509;SDS011;29105;57.764;40.952;2023-07-29T11:43:19;5.50;;;2.17;;
43509;SDS011;29105;57.764;40.952;2023-07-29T11:45:45;6.03;;;2.10;;
43509;SDS011;29105;57.764;40.952;2023-07-29T11:48:11;3.88;;;1.65;;
43509;SDS011;29105;57.764;40.952;2023-07-29T11:50:36;1.58;;;1.23;;
43509;SDS011;29105;57.764;40.952;2023-07-29T11:53:02;2.80;;;1.25;;
43509;SDS011;29105;57.764;40.952;2023-07-29T11:55:28;2.17;;;1.73;;
43509;SDS011;29105;57.764;40.952;2023-07-29T11:57:54;4.80;;;0.60;;
43509;SDS011;29105;57.764;40.952;2023-07-29T12:00:20;1.13;;;0.70;;
43509;SDS011;29105;57.764;40.952;2023-07-29T12:02:46;0.82;;;0.50;;
43509;SDS011;29105;57.764;40.952;2023-07-29T12:05:13;0.63;;;0.25;;
43509;SDS011;29105;57.764;40.952;2023-07-29T12:07:40;0.65;;;0.50;;
43509;SDS011;29105;57.764;40.952;2023-07-29T12:10:07;1.02;;;0.30;;
43509;SDS011;29105;57.764;40.952;2023-07-29T12:12:37;2.75;;;0.30;;
43509;SDS011;29105;57.764;40.952;2023-07-29T12:15:06;0.98;;;0.52;;
43509;SDS011;29105;57.764;40.952;2023-07-29T12:17:32;0.45;;;0.17;;
43509;SDS011;29105;57.764;40.952;2023-07-29T12:20:07;1.00;;;0.20;;
43509;SDS011;29105;57.764;40.952;2023-07-29T12:22:34;0.82;;;0.30;;
43509;SDS011;29105;57.764;40.952;2023-07-29T12:24:59;0.55;;;0.20;;
43509;SDS011;29105;57.764;40.952;2023-07-29T12:27:25;1.48;;;0.20;;
43509;SDS011;29105;57.764;40.952;2023-07-29T12:29:51;1.48;;;0.35;;
43509;SDS011;29105;57.764;40.952;2023-07-29T12:32:17;0.60;;;0.20;;
43509;SDS011;29105;57.764;40.952;2023-07-29T12:34:43;0.43;;;0.20;;
43509;SDS011;29105;57.764;40.952;2023-07-29T12:37:09;0.60;;;0.20;;
43509;SDS011;29105;57.764;40.952;2023-07-29T12:39:39;0.85;;;0.25;;
43509;SDS011;29105;57.764;40.952;2023-07-29T12:42:06;1.10;;;0.13;;
43509;SDS011;29105;57.764;40.952;2023-07-29T12:44:33;0.60;;;0.20;;
43509;SDS011;29105;57.764;40.952;2023-07-29T12:47:00;1.30;;;0.13;;
43509;SDS011;29105;57.764;40.952;2023-07-29T12:49:28;0.88;;;0.30;;
43509;SDS011;29105;57.764;40.952;2023-07-29T12:51:55;0.95;;;0.38;;
43509;SDS011;29105;57.764;40.952;2023-07-29T12:54:24;1.00;;;0.10;;
43509;SDS011;29105;57.764;40.952;2023-07-29T12:56:50;1.90;;;0.15;;
43509;SDS011;29105;57.764;40.952;2023-07-29T12:59:16;0.77;;;0.20;;
43509;SDS011;29105;57.764;40.952;2023-07-29T13:01:41;3.65;;;0.15;;
43509;SDS011;29105;57.764;40.952;2023-07-29T13:04:09;0.85;;;0.20;;
43509;SDS011;29105;57.764;40.952;2023-07-29T13:06:35;1.90;;;0.30;;
43509;SDS011;29105;57.764;40.952;2023-07-29T13:09:00;1.90;;;0.60;;
43509;SDS011;29105;57.764;40.952;2023-07-29T13:11:26;1.88;;;0.60;;
43509;SDS011;29105;57.764;40.952;2023-07-29T13:13:52;1.80;;;0.95;;
43509;SDS011;29105;57.764;40.952;2023-07-29T13:16:17;2.22;;;0.30;;
43509;SDS011;29105;57.764;40.952;2023-07-29T13:18:44;1.60;;;0.30;;
43509;SDS011;29105;57.764;40.952;2023-07-29T13:21:10;5.18;;;0.50;;
43509;SDS011;29105;57.764;40.952;2023-07-29T13:23:35;3.33;;;0.65;;
43509;SDS011;29105;57.764;40.952;2023-07-29T13:26:01;0.57;;;0.20;;
43509;SDS011;29105;57.764;40.952;2023-07-29T13:28:27;1.17;;;0.40;;
43509;SDS011;29105;57.764;40.952;2023-07-29T13:30:52;1.70;;;0.20;;
43509;SDS011;29105;57.764;40.952;2023-07-29T13:33:18;1.15;;;0.30;;
43509;SDS011;29105;57.764;40.952;2023-07-29T13:35:44;3.25;;;0.70;;
43509;SDS011;29105;57.764;40.952;2023-07-29T13:38:09;1.02;;;0.30;;
43509;SDS011;29105;57.764;40.952;2023-07-29T13:40:36;4.35;;;0.60;;
43509;SDS011;29105;57.764;40.952;2023-07-29T13:43:02;1.92;;;0.40;;
43509;SDS011;29105;57.764;40.952;2023-07-29T13:45:27;3.97;;;0.50;;
43509;SDS011;29105;57.764;40.952;2023-07-29T13:47:53;1.73;;;0.50;;
43509;SDS011;29105;57.764;40.952;2023-07-29T13:50:19;1.48;;;0.45;;
43509;SDS011;29105;57.764;40.952;2023-07-29T13:52:45;2.45;;;0.35;;
43509;SDS011;29105;57.764;40.952;2023-07-29T13:55:11;0.98;;;0.32;;
43509;SDS011;29105;57.764;40.952;2023-07-29T13:57:37;0.63;;;0.30;;
43509;SDS011;29105;57.764;40.952;2023-07-29T14:00:07;0.80;;;0.40;;
43509;SDS011;29105;57.764;40.952;2023-07-29T14:02:33;2.80;;;0.50;;
43509;SDS011;29105;57.764;40.952;2023-07-29T14:04:59;3.47;;;0.73;;
43509;SDS011;29105;57.764;40.952;2023-07-29T14:07:24;1.60;;;0.40;;
43509;SDS011;29105;57.764;40.952;2023-07-29T14:09:50;2.35;;;0.40;;
43509;SDS011;29105;57.764;40.952;2023-07-29T14:12:16;0.60;;;0.38;;
43509;SDS011;29105;57.764;40.952;2023-07-29T14:14:42;2.50;;;0.20;;
43509;SDS011;29105;57.764;40.952;2023-07-29T14:17:07;1.55;;;0.52;;
43509;SDS011;29105;57.764;40.952;2023-07-29T14:19:35;2.88;;;0.50;;
43509;SDS011;29105;57.764;40.952;2023-07-29T14:22:01;3.03;;;0.47;;
43509;SDS011;29105;57.764;40.952;2023-07-29T14:24:27;3.80;;;0.57;;
43509;SDS011;29105;57.764;40.952;2023-07-29T14:26:52;1.65;;;0.20;;
43509;SDS011;29105;57.764;40.952;2023-07-29T14:29:18;2.17;;;0.20;;
43509;SDS011;29105;57.764;40.952;2023-07-29T14:31:43;1.05;;;0.20;;
43509;SDS011;29105;57.764;40.952;2023-07-29T14:34:09;2.75;;;0.20;;
43509;SDS011;29105;57.764;40.952;2023-07-29T14:36:35;0.90;;;0.20;;
43509;SDS011;29105;57.764;40.952;2023-07-29T14:39:01;3.50;;;0.30;;
43509;SDS011;29105;57.764;40.952;2023-07-29T14:41:27;4.40;;;0.38;;